Time;durP1;ratioP1;P1;durP2;ratioP2;P2;SDS_P1;SDS_P2;PMS_P1;PMS_P2;Temp;Humidity;BMP_temperature;BMP_pressure;BME280_temperature;BME280_humidity;BME280_pressure;Samples;Min_cycle;Max_cycle;Signal;HPM_P1;HPM_P2
2023/04/19 00:00:38;;;;;;;9.38;3.80;;;6.60;71.60;;;;;;5089264;28;20097;-52
2023/04/19 00:03:07;;;;;;;7.00;3.70;;;6.60;70.90;;;;;;5071264;28;20024;-52
2023/04/19 00:05:33;;;;;;;11.98;4.38;;;6.60;70.20;;;;;;5077520;28;20024;-50
2023/04/19 00:07:59;;;;;;;6.60;3.58;;;6.60;69.90;;;;;;5086353;28;20361;-54
2023/04/19 00:10:25;;;;;;;5.35;3.42;;;6.60;69.70;;;;;;5087870;28;20124;-54
2023/04/19 00:12:51;;;;;;;9.48;3.67;;;6.50;69.00;;;;;;5069132;28;20039;-51
2023/04/19 00:15:17;;;;;;;6.25;2.97;;;6.50;68.50;;;;;;5088985;28;20020;-51
2023/04/19 00:17:42;;;;;;;7.43;3.15;;;6.50;68.20;;;;;;5084841;28;20031;-49
2023/04/19 00:20:09;;;;;;;8.05;3.20;;;6.50;67.60;;;;;;5067564;28;20025;-53
2023/04/19 00:22:34;;;;;;;7.95;3.25;;;6.50;65.30;;;;;;5088406;28;20093;-49
2023/04/19 00:25:01;;;;;;;3.97;2.80;;;6.50;64.50;;;;;;5067182;28;20033;-54
2023/04/19 00:27:26;;;;;;;5.38;3.40;;;6.50;64.40;;;;;;5088007;28;20067;-51
2023/04/19 00:29:52;;;;;;;4.95;3.13;;;6.40;64.30;;;;;;5067414;28;20109;-52
2023/04/19 00:32:17;;;;;;;6.60;2.33;;;6.40;63.00;;;;;;5088073;28;20515;-50
2023/04/19 00:34:43;;;;;;;5.40;2.78;;;6.40;63.00;;;;;;5067124;28;20149;-52
2023/04/19 00:37:09;;;;;;;7.13;2.80;;;6.30;62.40;;;;;;5091642;28;20039;-54
2023/04/19 00:39:35;;;;;;;6.47;3.20;;;6.30;62.60;;;;;;5071098;28;20029;-48
2023/04/19 00:42:01;;;;;;;8.40;3.10;;;6.30;62.50;;;;;;5092024;28;20112;-50
2023/04/19 00:44:27;;;;;;;5.70;3.05;;;6.20;62.10;;;;;;5071194;28;20036;-52
2023/04/19 00:46:54;;;;;;;6.78;3.47;;;6.10;62.50;;;;;;5091920;28;20043;-52
2023/04/19 00:49:22;;;;;;;5.82;2.63;;;6.10;63.50;;;;;;5069304;28;20055;-53
2023/04/19 00:51:49;;;;;;;8.38;2.95;;;6.00;63.20;;;;;;5092186;28;20035;-51
2023/04/19 00:54:15;;;;;;;5.90;2.85;;;5.90;63.10;;;;;;5070672;28;20024;-52
2023/04/19 00:56:42;;;;;;;6.28;3.13;;;5.90;63.60;;;;;;5091967;28;20028;-55
2023/04/19 00:59:08;;;;;;;5.10;2.53;;;5.80;64.20;;;;;;5070734;28;20024;-50
2023/04/19 01:01:34;;;;;;;4.30;2.60;;;5.70;64.80;;;;;;5091774;28;20024;-50
2023/04/19 01:04:00;;;;;;;4.88;2.78;;;5.60;65.60;;;;;;5070933;28;20032;-51
2023/04/19 01:06:28;;;;;;;5.43;2.85;;;5.60;66.00;;;;;;5087417;28;20056;-52
2023/04/19 01:08:54;;;;;;;6.28;3.45;;;5.50;66.30;;;;;;5080950;28;20032;-51
2023/04/19 01:11:21;;;;;;;6.10;3.00;;;5.40;66.10;;;;;;5072310;28;20029;-53
2023/04/19 01:13:46;;;;;;;11.00;2.95;;;5.40;66.00;;;;;;5089756;28;20020;-52
2023/04/19 01:16:12;;;;;;;5.25;2.70;;;5.40;66.20;;;;;;5072592;28;20029;-55
2023/04/19 01:18:39;;;;;;;7.15;3.05;;;5.30;66.00;;;;;;5089361;28;20028;-49
2023/04/19 01:21:06;;;;;;;9.77;2.90;;;5.30;66.30;;;;;;5072081;28;20036;-52
2023/04/19 01:23:31;;;;;;;7.38;2.92;;;5.20;66.80;;;;;;5089316;28;20028;-52
2023/04/19 01:25:57;;;;;;;5.57;2.40;;;5.20;67.10;;;;;;5091933;28;20024;-52
2023/04/19 01:28:22;;;;;;;4.32;2.50;;;5.10;66.90;;;;;;5076412;28;20063;-52
2023/04/19 01:30:50;;;;;;;9.50;2.90;;;5.10;66.60;;;;;;5090543;28;20028;-51
2023/04/19 01:33:16;;;;;;;7.57;2.92;;;5.10;67.00;;;;;;5074828;28;20032;-53
2023/04/19 01:35:41;;;;;;;6.38;2.70;;;5.10;67.20;;;;;;5091784;28;20017;-53
2023/04/19 01:38:07;;;;;;;4.30;2.53;;;5.10;67.50;;;;;;5074031;28;20024;-52
2023/04/19 01:40:32;;;;;;;4.93;2.83;;;5.00;68.00;;;;;;5091624;28;20379;-53
2023/04/19 01:42:58;;;;;;;7.95;3.08;;;5.00;68.30;;;;;;5089514;28;20024;-54
2023/04/19 01:45:23;;;;;;;5.20;2.88;;;5.00;68.50;;;;;;5091420;28;20104;-54
2023/04/19 01:47:49;;;;;;;8.90;2.75;;;5.00;68.50;;;;;;5071039;28;20036;-53
2023/04/19 01:50:14;;;;;;;7.25;2.40;;;4.90;68.70;;;;;;5091429;28;20027;-49
2023/04/19 01:52:40;;;;;;;7.32;3.15;;;4.90;69.50;;;;;;5070059;28;20040;-53
2023/04/19 01:55:06;;;;;;;8.45;3.10;;;4.90;70.20;;;;;;5091380;28;20099;-51
2023/04/19 01:57:31;;;;;;;6.63;3.35;;;4.80;70.40;;;;;;5071478;28;20059;-52
2023/04/19 01:59:56;;;;;;;5.18;2.53;;;4.80;70.80;;;;;;5088735;28;20073;-52
2023/04/19 02:02:22;;;;;;;5.53;2.28;;;4.80;70.90;;;;;;5090984;28;20036;-51
2023/04/19 02:04:47;;;;;;;8.85;2.85;;;4.80;71.50;;;;;;5072032;28;20580;-51
2023/04/19 02:07:13;;;;;;;7.03;3.15;;;4.70;72.20;;;;;;5088571;28;20020;-50
2023/04/19 02:09:38;;;;;;;5.38;2.70;;;4.70;72.70;;;;;;5069354;28;20036;-52
2023/04/19 02:12:04;;;;;;;8.95;3.28;;;4.60;73.60;;;;;;5090162;28;20055;-50
2023/04/19 02:14:30;;;;;;;5.63;3.00;;;4.60;74.40;;;;;;5069360;28;20036;-54
2023/04/19 02:16:56;;;;;;;4.47;2.72;;;4.50;75.30;;;;;;5090244;28;20381;-53
2023/04/19 02:19:22;;;;;;;4.43;2.50;;;4.40;76.40;;;;;;5069317;28;20578;-53
2023/04/19 02:21:48;;;;;;;7.68;2.83;;;4.40;77.50;;;;;;5088840;28;20032;-49
2023/04/19 02:24:14;;;;;;;4.88;3.13;;;4.30;78.30;;;;;;5069182;28;20105;-44
2023/04/19 02:26:40;;;;;;;6.68;3.03;;;4.20;80.20;;;;;;5090154;28;20028;-44
2023/04/19 02:29:06;;;;;;;5.00;2.92;;;4.20;81.30;;;;;;5069143;28;20059;-45
2023/04/19 02:31:31;;;;;;;7.32;3.33;;;4.10;82.40;;;;;;5089914;28;20082;-44
2023/04/19 02:33:57;;;;;;;6.20;2.63;;;4.10;83.90;;;;;;5079765;28;20097;-44
2023/04/19 02:36:23;;;;;;;6.68;2.97;;;4.10;85.00;;;;;;5090419;28;20432;-44
2023/04/19 02:38:48;;;;;;;6.80;3.05;;;4.00;85.60;;;;;;5078832;28;20173;-45
2023/04/19 02:41:14;;;;;;;7.43;2.60;;;4.00;86.70;;;;;;5070692;28;20031;-48
2023/04/19 02:43:40;;;;;;;7.40;3.20;;;4.00;87.90;;;;;;5087858;28;20032;-44
2023/04/19 02:46:05;;;;;;;7.78;3.28;;;3.90;89.20;;;;;;5069450;28;20017;-45
2023/04/19 02:48:30;;;;;;;7.35;3.58;;;3.90;90.00;;;;;;5087386;28;20036;-47
2023/04/19 02:50:56;;;;;;;7.82;3.33;;;3.80;90.80;;;;;;5090332;28;20069;-45
2023/04/19 02:53:22;;;;;;;6.25;3.20;;;3.80;91.30;;;;;;5074700;28;20074;-47
2023/04/19 02:55:47;;;;;;;6.03;3.13;;;3.70;92.30;;;;;;5090225;28;20369;-48
2023/04/19 02:58:13;;;;;;;10.48;3.83;;;3.70;93.30;;;;;;5072784;28;20036;-47
2023/04/19 03:00:38;;;;;;;7.18;3.78;;;3.70;94.10;;;;;;5090128;28;20032;-48
2023/04/19 03:03:04;;;;;;;6.13;3.28;;;3.60;94.70;;;;;;5072018;28;20020;-47
2023/04/19 03:05:29;;;;;;;7.20;3.47;;;3.60;95.20;;;;;;5075274;28;20103;-45
2023/04/19 03:07:55;;;;;;;5.78;2.55;;;3.50;96.10;;;;;;5087086;28;20404;-44
2023/04/19 03:10:20;;;;;;;8.05;3.33;;;3.50;96.10;;;;;;5089970;28;20036;-47
2023/04/19 03:12:46;;;;;;;5.18;2.83;;;3.50;97.00;;;;;;5069384;28;20493;-44
2023/04/19 03:15:11;;;;;;;10.25;3.30;;;3.50;97.90;;;;;;5089817;28;20021;-47
2023/04/19 03:17:37;;;;;;;7.78;3.40;;;3.40;98.60;;;;;;5069878;28;20111;-44
2023/04/19 03:20:09;;;;;;;5.97;3.05;;;3.40;99.50;;;;;;5089831;28;20544;-44
2023/04/19 03:22:35;;;;;;;9.15;3.00;;;3.30;99.90;;;;;;5049562;28;20029;-44
2023/04/19 03:25:00;;;;;;;5.35;2.53;;;3.30;99.90;;;;;;5085798;28;20032;-48
2023/04/19 03:27:26;;;;;;;4.40;2.45;;;3.20;99.90;;;;;;5069790;28;20037;-48
2023/04/19 03:29:51;;;;;;;5.30;3.00;;;3.20;99.90;;;;;;5087061;28;20551;-46
2023/04/19 03:32:17;;;;;;;4.82;2.25;;;3.10;99.90;;;;;;5089391;28;20016;-46
2023/04/19 03:34:42;;;;;;;7.10;2.92;;;3.00;99.90;;;;;;5067651;28;20040;-46
2023/04/19 03:37:08;;;;;;;8.00;3.05;;;3.00;99.90;;;;;;5088417;28;20085;-45
2023/04/19 03:39:33;;;;;;;6.47;2.95;;;3.00;99.90;;;;;;5067857;28;20033;-47
2023/04/19 03:42:00;;;;;;;7.50;3.13;;;3.00;99.90;;;;;;5088564;28;20392;-44
2023/04/19 03:44:25;;;;;;;5.90;3.00;;;3.00;99.90;;;;;;5067489;28;20033;-45
2023/04/19 03:46:51;;;;;;;7.10;3.08;;;2.90;99.90;;;;;;5088444;28;20031;-44
2023/04/19 03:49:16;;;;;;;6.15;2.60;;;2.90;99.90;;;;;;5067465;28;20111;-44
2023/04/19 03:51:42;;;;;;;5.43;2.45;;;2.90;99.90;;;;;;5088435;28;20407;-46
2023/04/19 03:54:07;;;;;;;7.05;2.55;;;2.90;99.90;;;;;;5071086;28;20106;-46
2023/04/19 03:56:33;;;;;;;5.88;2.40;;;2.90;99.90;;;;;;5088758;28;20035;-45
2023/04/19 03:58:58;;;;;;;5.65;2.25;;;2.90;99.90;;;;;;5073348;28;20047;-47
2023/04/19 04:01:25;;;;;;;6.45;2.70;;;2.80;99.90;;;;;;5089152;28;20032;-46
2023/04/19 04:03:51;;;;;;;3.50;2.17;;;2.90;99.90;;;;;;5072028;28;20039;-49
2023/04/19 04:06:16;;;;;;;4.15;2.45;;;2.80;99.90;;;;;;5070825;28;20036;-44
2023/04/19 04:08:42;;;;;;;4.32;2.15;;;2.80;99.90;;;;;;5082344;28;20024;-46
2023/04/19 04:11:07;;;;;;;4.00;1.95;;;2.90;99.90;;;;;;5068856;28;20024;-46
2023/04/19 04:13:33;;;;;;;9.05;2.50;;;2.80;99.90;;;;;;5086192;28;20031;-47
2023/04/19 04:15:59;;;;;;;4.30;2.28;;;2.90;99.90;;;;;;5088944;28;20024;-46
2023/04/19 04:18:25;;;;;;;7.45;2.72;;;2.90;99.90;;;;;;5068194;28;20032;-45
2023/04/19 04:20:51;;;;;;;4.45;2.28;;;2.90;99.90;;;;;;5088589;28;20031;-44
2023/04/19 04:23:16;;;;;;;7.25;2.53;;;2.90;99.90;;;;;;5067180;28;20032;-49
2023/04/19 04:25:42;;;;;;;6.40;1.70;;;3.00;99.90;;;;;;5088796;28;20028;-46
2023/04/19 04:28:07;;;;;;;5.60;2.33;;;3.00;99.90;;;;;;5068889;28;20036;-45
2023/04/19 04:30:33;;;;;;;2.95;1.77;;;3.00;99.90;;;;;;5086214;28;20032;-45
2023/04/19 04:32:59;;;;;;;5.15;1.90;;;3.10;99.90;;;;;;5085993;28;20091;-46
2023/04/19 04:35:26;;;;;;;3.33;2.00;;;3.10;99.90;;;;;;5066825;28;20070;-47
2023/04/19 04:37:54;;;;;;;5.47;2.13;;;3.10;99.90;;;;;;5088086;28;20477;-44
2023/04/19 04:40:20;;;;;;;9.70;2.42;;;3.20;99.90;;;;;;5066419;28;20036;-45
2023/04/19 04:42:45;;;;;;;5.63;2.42;;;3.30;99.90;;;;;;5048287;28;20036;-44
2023/04/19 04:45:11;;;;;;;4.97;1.95;;;3.40;99.90;;;;;;5085358;28;20115;-48
2023/04/19 04:47:37;;;;;;;7.32;2.80;;;3.70;99.90;;;;;;5087783;28;20077;-48
2023/04/19 04:50:03;;;;;;;5.38;2.20;;;4.10;99.90;;;;;;5079241;28;20028;-47
2023/04/19 04:52:29;;;;;;;4.25;1.95;;;4.90;99.90;;;;;;5068566;28;20051;-45
2023/04/19 04:54:55;;;;;;;5.90;2.30;;;5.70;99.90;;;;;;5085608;28;20531;-45
2023/04/19 04:57:20;;;;;;;5.80;2.05;;;6.50;95.30;;;;;;5088858;28;20020;-48
2023/04/19 04:59:47;;;;;;;3.92;2.10;;;7.20;90.90;;;;;;5067359;28;20031;-46
2023/04/19 05:02:13;;;;;;;3.85;2.10;;;7.60;82.90;;;;;;5088594;28;20020;-45
2023/04/19 05:04:38;;;;;;;3.22;1.65;;;8.10;83.90;;;;;;5068383;28;20413;-45
2023/04/19 05:07:04;;;;;;;11.27;2.47;;;8.80;78.40;;;;;;5084040;28;20039;-47
2023/04/19 05:09:29;;;;;;;2.63;1.70;;;9.00;71.30;;;;;;5083655;28;20519;-45
2023/04/19 05:11:55;;;;;;;2.60;1.45;;;9.60;69.00;;;;;;5088187;28;20027;-45
2023/04/19 05:14:20;;;;;;;3.58;1.88;;;9.90;64.90;;;;;;5072372;28;20110;-46
2023/04/19 05:16:46;;;;;;;2.92;1.70;;;9.80;62.50;;;;;;5086807;28;20028;-47
2023/04/19 05:19:11;;;;;;;3.35;1.40;;;10.20;61.70;;;;;;5069415;28;20107;-47
2023/04/19 05:21:37;;;;;;;3.75;1.70;;;10.50;62.30;;;;;;5086740;28;20036;-49
2023/04/19 05:24:03;;;;;;;4.15;2.03;;;11.20;57.10;;;;;;5073164;28;20028;-51
2023/04/19 05:26:28;;;;;;;4.40;1.83;;;11.20;57.30;;;;;;5091308;28;20395;-50
2023/04/19 05:28:55;;;;;;;4.30;1.50;;;11.70;52.10;;;;;;5072144;28;20502;-46
2023/04/19 05:31:21;;;;;;;5.30;2.13;;;11.70;53.30;;;;;;5091633;28;20511;-49
2023/04/19 05:33:46;;;;;;;3.65;1.42;;;11.30;51.70;;;;;;5078419;28;20152;-45
2023/04/19 05:36:12;;;;;;;4.40;1.48;;;12.00;53.40;;;;;;5091587;28;20468;-47
2023/04/19 05:38:37;;;;;;;3.25;1.80;;;12.20;48.70;;;;;;5089588;28;20035;-48
2023/04/19 05:41:04;;;;;;;2.97;1.35;;;12.60;48.20;;;;;;5051335;28;20048;-46
2023/04/19 05:43:29;;;;;;;3.63;1.90;;;12.90;42.50;;;;;;5090091;28;20028;-46
2023/04/19 05:45:55;;;;;;;5.25;2.00;;;12.60;42.10;;;;;;5069952;28;20480;-47
2023/04/19 05:48:21;;;;;;;3.60;1.92;;;13.20;44.10;;;;;;5089031;28;20090;-43
2023/04/19 05:50:46;;;;;;;3.53;1.70;;;13.80;39.20;;;;;;5069699;28;20032;-43
2023/04/19 05:53:12;;;;;;;2.67;1.75;;;13.40;36.10;;;;;;5090453;28;20024;-45
2023/04/19 05:55:37;;;;;;;3.30;1.50;;;13.90;38.10;;;;;;5069387;28;20496;-45
2023/04/19 05:58:03;;;;;;;5.30;2.22;;;14.30;34.80;;;;;;5090245;28;20028;-44
2023/04/19 06:00:28;;;;;;;3.10;1.50;;;13.90;31.70;;;;;;5065725;28;20111;-43
2023/04/19 06:02:54;;;;;;;3.40;1.50;;;14.30;31.10;;;;;;5069103;28;20024;-48
2023/04/19 06:05:19;;;;;;;3.25;1.92;;;14.80;33.00;;;;;;5065803;28;20075;-43
2023/04/19 06:07:45;;;;;;;4.47;1.80;;;14.90;28.20;;;;;;5069157;28;20514;-43
2023/04/19 06:10:10;;;;;;;2.92;1.25;;;14.30;27.50;;;;;;5088940;28;20036;-43
2023/04/19 06:12:36;;;;;;;1.63;1.13;;;15.30;27.90;;;;;;5089501;28;20063;-47
2023/04/19 06:15:02;;;;;;;3.50;1.17;;;16.20;27.90;;;;;;5069964;28;20056;-46
2023/04/19 06:17:27;;;;;;;6.63;1.80;;;16.50;23.80;;;;;;5087133;28;20039;-48
2023/04/19 06:19:54;;;;;;;2.80;1.70;;;17.10;20.00;;;;;;5089082;28;20035;-48
2023/04/19 06:22:20;;;;;;;3.35;1.88;;;16.70;20.10;;;;;;5067864;28;20029;-45
2023/04/19 06:24:46;;;;;;;4.50;1.70;;;15.60;21.80;;;;;;5088738;28;20089;-43
2023/04/19 06:27:11;;;;;;;3.00;1.63;;;16.10;20.80;;;;;;5066293;28;20089;-44
2023/04/19 06:29:37;;;;;;;4.10;1.52;;;15.50;20.00;;;;;;5077443;28;20428;-44
2023/04/19 06:32:03;;;;;;;4.45;1.50;;;15.30;21.30;;;;;;5087860;28;20078;-45
2023/04/19 06:34:28;;;;;;;4.78;1.65;;;16.00;20.70;;;;;;5088976;28;20040;-45
2023/04/19 06:36:54;;;;;;;3.67;1.70;;;15.60;19.50;;;;;;5068864;28;20048;-43
2023/04/19 06:39:19;;;;;;;4.57;1.80;;;16.30;20.60;;;;;;5089623;28;20055;-44
2023/04/19 06:41:45;;;;;;;4.90;1.80;;;16.40;19.70;;;;;;5068728;28;20507;-43
2023/04/19 06:44:10;;;;;;;4.53;1.60;;;16.10;17.50;;;;;;5089797;28;20047;-45
2023/04/19 06:46:36;;;;;;;5.65;2.08;;;15.60;18.10;;;;;;5069008;28;20024;-44
2023/04/19 06:49:01;;;;;;;5.90;1.88;;;15.80;17.60;;;;;;5089882;28;20032;-43
2023/04/19 06:51:27;;;;;;;5.53;1.80;;;16.10;17.30;;;;;;5070137;28;20043;-48
2023/04/19 06:53:52;;;;;;;3.03;1.55;;;16.20;18.70;;;;;;5087564;28;20059;-43
2023/04/19 06:56:45;;;;;;;4.75;1.65;;;17.00;17.40;;;;;;5070284;28;20029;-47
2023/04/19 06:59:12;;;;;;;4.60;1.40;;;17.80;13.90;;;;;;5049446;28;20435;-45
2023/04/19 07:01:38;;;;;;;3.15;1.48;;;19.00;14.80;;;;;;5086912;28;20107;-43
2023/04/19 07:04:04;;;;;;;5.32;1.77;;;20.10;13.70;;;;;;5089572;28;20027;-44
2023/04/19 07:06:30;;;;;;;5.00;1.55;;;20.30;10.50;;;;;;5066939;28;20033;-45
2023/04/19 07:08:55;;;;;;;4.28;1.50;;;21.00;10.20;;;;;;5089724;28;20298;-46
2023/04/19 07:11:21;;;;;;;6.28;1.88;;;21.00;6.40;;;;;;5069881;28;20028;-47
2023/04/19 07:13:46;;;;;;;5.93;1.80;;;19.40;7.70;;;;;;5087181;28;20024;-45
2023/04/19 07:16:13;;;;;;;3.88;1.90;;;19.40;7.00;;;;;;5089383;28;20035;-44
2023/04/19 07:18:39;;;;;;;3.65;1.60;;;18.40;7.60;;;;;;5067967;28;20513;-43
2023/04/19 07:21:04;;;;;;;2.70;1.52;;;18.40;10.40;;;;;;5088786;28;20111;-49
2023/04/19 07:23:30;;;;;;;3.80;1.83;;;18.90;8.00;;;;;;5067860;28;20021;-47
2023/04/19 07:25:56;;;;;;;5.10;1.90;;;18.10;6.70;;;;;;5088673;28;20070;-43
2023/04/19 07:28:21;;;;;;;5.93;1.88;;;16.70;9.30;;;;;;5067510;28;20037;-46
2023/04/19 07:30:47;;;;;;;5.53;2.10;;;15.60;10.80;;;;;;5088355;28;20441;-45
2023/04/19 07:33:12;;;;;;;5.38;2.35;;;14.90;11.20;;;;;;5070977;28;20464;-44
2023/04/19 07:35:38;;;;;;;6.07;2.28;;;14.50;12.80;;;;;;5089168;28;20020;-47
2023/04/19 07:38:03;;;;;;;3.65;1.83;;;14.00;13.80;;;;;;5067423;28;20116;-48
2023/04/19 07:40:29;;;;;;;4.45;2.55;;;14.20;13.80;;;;;;5088138;28;20047;-46
2023/04/19 07:42:55;;;;;;;3.50;1.90;;;14.10;14.60;;;;;;5067549;28;20039;-47
2023/04/19 07:45:20;;;;;;;6.55;1.98;;;13.80;14.00;;;;;;5087984;28;20127;-46
2023/04/19 07:47:46;;;;;;;5.38;2.13;;;13.70;15.50;;;;;;5077714;28;20195;-43
2023/04/19 07:50:11;;;;;;;5.55;2.28;;;14.70;15.50;;;;;;5069218;28;20056;-44
2023/04/19 07:52:37;;;;;;;4.68;2.10;;;14.70;13.70;;;;;;5086206;28;20298;-45
2023/04/19 07:55:03;;;;;;;3.47;1.77;;;15.30;14.10;;;;;;5069195;28;20051;-44
2023/04/19 07:57:28;;;;;;;5.55;2.40;;;15.00;13.70;;;;;;5086044;28;20066;-48
2023/04/19 07:59:58;;;;;;;8.07;2.78;;;15.00;13.00;;;;;;5068952;28;20035;-44
2023/04/19 08:02:25;;;;;;;5.30;2.63;;;14.40;14.00;;;;;;5086353;28;20451;-43
2023/04/19 08:04:50;;;;;;;5.25;2.42;;;14.90;14.30;;;;;;5080936;28;20112;-44
2023/04/19 08:07:16;;;;;;;7.05;3.00;;;15.10;13.30;;;;;;5072736;28;20141;-43
2023/04/19 08:09:42;;;;;;;5.20;2.42;;;14.00;14.70;;;;;;5088576;28;20016;-43
2023/04/19 08:12:07;;;;;;;6.45;2.67;;;13.30;16.70;;;;;;5072050;28;20024;-44
2023/04/19 08:14:33;;;;;;;6.40;2.58;;;13.30;18.10;;;;;;5088536;28;20032;-43
2023/04/19 08:16:58;;;;;;;4.63;2.25;;;13.10;17.30;;;;;;5070722;28;20445;-43
2023/04/19 08:19:24;;;;;;;4.30;2.45;;;12.70;19.20;;;;;;5088389;28;20079;-43
2023/04/19 08:21:49;;;;;;;4.00;2.40;;;13.30;18.90;;;;;;5069596;28;20420;-45
2023/04/19 08:24:15;;;;;;;5.93;2.40;;;12.60;19.80;;;;;;5088358;28;20016;-44
2023/04/19 08:26:41;;;;;;;5.82;2.42;;;12.90;19.60;;;;;;5068157;28;20037;-47
2023/04/19 08:29:06;;;;;;;4.38;2.13;;;12.80;19.30;;;;;;5088391;28;20430;-48
2023/04/19 08:31:32;;;;;;;8.35;3.00;;;12.50;20.40;;;;;;5066854;28;20589;-47
2023/04/19 08:33:59;;;;;;;5.53;2.78;;;12.10;21.40;;;;;;5078312;28;20052;-47
2023/04/19 08:36:25;;;;;;;7.40;2.60;;;11.80;22.00;;;;;;5087856;28;20054;-48
2023/04/19 08:38:51;;;;;;;7.68;2.67;;;11.90;22.60;;;;;;5066902;28;20579;-51
2023/04/19 08:41:17;;;;;;;6.95;2.90;;;12.20;22.30;;;;;;5087490;28;20076;-48
2023/04/19 08:43:46;;;;;;;7.90;2.95;;;12.50;22.20;;;;;;5065488;28;20532;-51
2023/04/19 08:46:12;;;;;;;6.80;3.20;;;12.10;21.80;;;;;;5086616;28;20223;-47
2023/04/19 08:48:39;;;;;;;4.60;2.67;;;12.00;21.70;;;;;;5066678;28;20033;-49
2023/04/19 08:51:05;;;;;;;7.30;2.50;;;12.00;22.70;;;;;;5087835;28;20028;-49
2023/04/19 08:53:33;;;;;;;6.07;2.70;;;12.40;22.30;;;;;;5066672;28;20033;-50
2023/04/19 08:56:00;;;;;;;6.55;3.22;;;12.70;20.50;;;;;;5087857;28;20081;-47
2023/04/19 08:58:28;;;;;;;5.95;3.20;;;12.20;21.50;;;;;;5070363;28;20847;-47
2023/04/19 09:00:54;;;;;;;6.95;3.05;;;12.50;20.40;;;;;;5091783;28;20497;-50
2023/04/19 09:03:20;;;;;;;7.45;3.20;;;12.40;21.60;;;;;;5070271;28;20041;-49
2023/04/19 09:05:45;;;;;;;8.52;2.90;;;12.60;20.80;;;;;;5084726;28;20058;-47
2023/04/19 09:08:28;;;;;;;9.18;3.83;;;12.50;21.10;;;;;;5070120;28;20040;-48
2023/04/19 09:10:58;;;;;;;6.35;3.28;;;12.60;21.60;;;;;;5091353;28;20028;-44
2023/04/19 09:13:24;;;;;;;5.65;2.92;;;13.00;21.20;;;;;;5069986;28;20403;-45
2023/04/19 09:15:52;;;;;;;6.90;3.20;;;13.10;19.80;;;;;;5091020;28;20032;-44
2023/04/19 09:18:18;;;;;;;8.70;3.10;;;12.20;20.80;;;;;;5069790;28;20029;-46
2023/04/19 09:20:44;;;;;;;5.22;2.80;;;12.10;21.70;;;;;;5090969;28;20094;-46
2023/04/19 09:23:12;;;;;;;6.82;3.47;;;12.30;22.80;;;;;;5069918;28;20039;-47
2023/04/19 09:25:39;;;;;;;7.60;3.65;;;12.30;21.60;;;;;;5091143;28;20071;-50
2023/04/19 09:28:11;;;;;;;7.03;2.92;;;12.50;21.90;;;;;;5069705;28;20052;-45
2023/04/19 09:30:38;;;;;;;8.57;2.85;;;12.70;20.70;;;;;;5091264;28;20036;-49
2023/04/19 09:33:03;;;;;;;8.30;3.40;;;12.70;20.90;;;;;;5071796;28;20060;-45
2023/04/19 09:35:40;;;;;;;6.60;3.17;;;13.00;20.10;;;;;;5091297;28;20071;-51
2023/04/19 09:38:06;;;;;;;7.78;3.17;;;12.90;20.90;;;;;;5069545;28;20025;-48
2023/04/19 09:40:31;;;;;;;4.43;2.35;;;13.00;20.80;;;;;;5090414;28;20423;-47
2023/04/19 09:42:57;;;;;;;5.80;2.72;;;13.40;20.70;;;;;;5069753;28;20124;-49
2023/04/19 09:45:23;;;;;;;7.20;2.63;;;13.30;20.80;;;;;;5090588;28;20418;-49
2023/04/19 09:48:06;;;;;;;6.25;2.78;;;13.40;20.30;;;;;;5080242;28;20475;-49
2023/04/19 09:50:31;;;;;;;8.90;2.80;;;13.60;20.30;;;;;;5071025;28;20082;-48
2023/04/19 09:52:58;;;;;;;6.05;2.97;;;13.20;20.10;;;;;;5088550;28;20032;-49
2023/04/19 09:55:25;;;;;;;7.40;3.60;;;13.40;20.20;;;;;;5090868;28;20533;-51
2023/04/19 09:57:52;;;;;;;6.47;2.90;;;13.60;20.00;;;;;;5080134;28;20016;-48
2023/04/19 10:00:18;;;;;;;10.82;3.20;;;13.00;20.20;;;;;;5071069;28;20031;-48
2023/04/19 10:02:46;;;;;;;3.60;2.50;;;13.10;20.60;;;;;;5088067;28;20032;-45
2023/04/19 10:05:14;;;;;;;8.07;3.03;;;13.30;20.50;;;;;;5071245;28;20024;-49
2023/04/19 10:07:40;;;;;;;7.22;3.30;;;13.20;19.40;;;;;;5088708;28;20081;-46
2023/04/19 10:10:07;;;;;;;4.50;2.72;;;13.20;18.90;;;;;;5071118;28;20020;-49
2023/04/19 10:12:34;;;;;;;7.50;3.45;;;13.10;19.20;;;;;;5088048;28;20665;-52
2023/04/19 10:14:59;;;;;;;8.50;3.22;;;13.00;19.90;;;;;;5070824;28;20122;-46
2023/04/19 10:17:25;;;;;;;8.98;2.90;;;13.00;20.90;;;;;;5086444;28;20113;-45
2023/04/19 10:19:58;;;;;;;6.57;3.05;;;12.90;20.00;;;;;;5090487;28;20077;-44
2023/04/19 10:22:24;;;;;;;6.00;2.97;;;12.90;22.00;;;;;;5063102;28;20112;-49
2023/04/19 10:25:13;;;;;;;9.43;4.00;;;13.00;21.10;;;;;;5090415;28;20012;-47
2023/04/19 10:27:40;;;;;;;8.63;2.85;;;12.80;21.50;;;;;;5066793;28;20089;-44
2023/04/19 10:30:11;;;;;;;6.35;2.70;;;12.90;21.60;;;;;;5070457;28;20025;-45
2023/04/19 10:32:42;;;;;;;5.03;2.80;;;12.60;21.90;;;;;;5066751;28;20031;-49
2023/04/19 10:35:20;;;;;;;7.25;2.97;;;12.40;23.50;;;;;;5070209;28;20090;-46
2023/04/19 10:38:13;;;;;;;8.05;3.70;;;12.20;22.80;;;;;;5069432;28;20102;-47
2023/04/19 10:40:55;;;;;;;8.20;3.88;;;12.20;21.90;;;;;;5050243;28;20025;-48
2023/04/19 10:43:24;;;;;;;5.28;3.05;;;12.00;21.70;;;;;;5087880;28;20059;-49
2023/04/19 10:45:50;;;;;;;7.57;3.42;;;12.00;22.30;;;;;;5090238;28;20119;-50
2023/04/19 10:48:34;;;;;;;8.75;3.50;;;11.90;21.90;;;;;;5068217;28;20064;-43
2023/04/19 10:51:18;;;;;;;5.00;2.70;;;11.90;22.30;;;;;;5049735;28;20436;-48
2023/04/19 10:53:56;;;;;;;6.72;3.35;;;12.10;22.80;;;;;;5087738;28;20081;-47
2023/04/19 10:57:01;;;;;;;8.27;3.90;;;12.40;21.60;;;;;;5049828;28;20106;-47
2023/04/19 10:59:29;;;;;;;7.15;3.50;;;12.50;21.40;;;;;;5049817;28;20041;-46
2023/04/19 11:01:59;;;;;;;14.48;3.58;;;12.50;21.80;;;;;;5087100;28;20020;-44
2023/04/19 11:04:30;;;;;;;7.60;3.80;;;12.80;20.40;;;;;;5089047;28;20094;-49
2023/04/19 11:07:00;;;;;;;7.43;3.53;;;12.80;20.30;;;;;;5068951;28;20234;-50
2023/04/19 11:09:25;;;;;;;10.10;3.53;;;12.90;19.90;;;;;;5089609;28;20028;-48
2023/04/19 11:11:58;;;;;;;10.45;3.38;;;12.90;20.60;;;;;;5070895;28;20502;-46
2023/04/19 11:14:25;;;;;;;10.20;4.03;;;12.90;20.70;;;;;;5087721;28;20028;-46
2023/04/19 11:16:50;;;;;;;6.22;3.13;;;12.70;20.20;;;;;;5089524;28;20024;-45
2023/04/19 11:19:17;;;;;;;5.78;3.47;;;12.60;21.70;;;;;;5067567;28;20029;-45
2023/04/19 11:21:44;;;;;;;5.18;2.88;;;12.40;20.10;;;;;;5089020;28;20032;-49
2023/04/19 11:24:11;;;;;;;8.75;3.50;;;12.30;21.20;;;;;;5067704;28;20162;-50
2023/04/19 11:26:36;;;;;;;6.57;2.88;;;12.30;21.80;;;;;;5088979;28;20089;-46
2023/04/19 11:29:02;;;;;;;8.10;2.90;;;12.30;22.90;;;;;;5067808;28;20431;-43
2023/04/19 11:31:30;;;;;;;5.70;2.83;;;12.30;23.20;;;;;;5088282;28;20114;-48
2023/04/19 11:33:58;;;;;;;5.93;2.80;;;12.30;24.30;;;;;;5076662;28;20051;-48
2023/04/19 11:36:24;;;;;;;5.88;2.42;;;12.30;23.40;;;;;;5069145;28;20082;-44
2023/04/19 11:38:51;;;;;;;7.50;3.55;;;12.40;22.60;;;;;;5086433;28;20032;-47
2023/04/19 11:41:16;;;;;;;7.07;3.35;;;12.60;22.90;;;;;;5088891;28;20070;-51
2023/04/19 11:43:44;;;;;;;8.52;3.95;;;12.60;22.50;;;;;;5067536;28;20052;-49
2023/04/19 11:46:10;;;;;;;7.80;3.85;;;12.60;22.00;;;;;;5087060;28;20036;-46
2023/04/19 11:48:37;;;;;;;8.98;3.13;;;12.50;21.00;;;;;;5067107;28;20063;-53
2023/04/19 11:51:03;;;;;;;5.65;2.70;;;12.20;21.70;;;;;;5088245;28;20515;-49
2023/04/19 11:53:31;;;;;;;9.80;3.47;;;12.30;23.00;;;;;;5067309;28;20060;-49
2023/04/19 11:56:02;;;;;;;4.82;3.15;;;12.50;21.90;;;;;;5088408;28;20024;-51
2023/04/19 11:58:34;;;;;;;10.02;3.40;;;12.10;22.00;;;;;;5069388;28;20034;-47
2023/04/19 12:01:03;;;;;;;7.32;3.15;;;12.10;23.20;;;;;;5068463;28;20036;-46
2023/04/19 12:03:29;;;;;;;5.72;2.83;;;12.10;23.40;;;;;;5086456;28;20457;-44
2023/04/19 12:05:55;;;;;;;9.00;3.03;;;12.20;23.30;;;;;;5062789;28;20111;-51
2023/04/19 12:08:54;;;;;;;6.68;3.10;;;12.30;22.90;;;;;;5085984;28;20036;-44
2023/04/19 12:11:23;;;;;;;8.18;3.47;;;12.10;23.20;;;;;;5063741;28;20343;-47
2023/04/19 12:14:10;;;;;;;8.02;3.42;;;11.80;22.90;;;;;;5066724;28;20040;-44
2023/04/19 12:16:36;;;;;;;9.60;3.50;;;11.90;23.70;;;;;;5048288;28;20029;-47
2023/04/19 12:19:18;;;;;;;6.53;3.05;;;11.80;24.20;;;;;;5085344;28;20029;-46
2023/04/19 12:21:45;;;;;;;5.13;2.80;;;12.00;23.90;;;;;;5048464;28;20052;-45
2023/04/19 12:24:13;;;;;;;12.05;3.38;;;12.40;23.50;;;;;;5085367;28;20032;-48
2023/04/19 12:26:53;;;;;;;6.50;3.25;;;12.70;22.80;;;;;;5088336;28;20036;-48
2023/04/19 12:29:19;;;;;;;5.57;2.72;;;12.70;22.80;;;;;;5083077;28;20032;-46
2023/04/19 12:31:44;;;;;;;7.55;3.10;;;12.60;21.80;;;;;;5089450;28;20020;-48
2023/04/19 12:34:10;;;;;;;9.98;2.97;;;12.80;22.50;;;;;;5070744;28;20059;-47
2023/04/19 12:36:35;;;;;;;10.70;3.63;;;12.90;21.80;;;;;;5091751;28;20373;-47
2023/04/19 12:39:01;;;;;;;8.88;2.83;;;12.90;20.80;;;;;;5070927;28;20028;-48
2023/04/19 12:41:26;;;;;;;10.98;3.35;;;12.90;20.30;;;;;;5090350;28;20034;-49
2023/04/19 12:43:52;;;;;;;6.97;3.45;;;12.90;20.20;;;;;;5069694;28;20552;-47
2023/04/19 12:46:17;;;;;;;5.13;3.28;;;12.70;20.50;;;;;;5091577;28;20038;-47
2023/04/19 12:48:42;;;;;;;5.25;2.75;;;12.60;20.70;;;;;;5070815;28;20047;-47